createdAt,value
2023-03-01T00:04:23.502Z,103058.69
2023-03-01T00:09:27.694Z,103061.50
2023-03-01T00:14:31.796Z,103065.00
2023-03-01T00:19:37.477Z,103065.94
2023-03-01T00:24:41.516Z,103061.69
2023-03-01T00:29:45.665Z,103067.78
2023-03-01T00:34:55.316Z,103060.25
2023-03-01T00:39:59.454Z,103073.13
2023-03-01T00:45:03.696Z,103071.44
2023-03-01T00:50:10.842Z,103068.94
2023-03-01T00:55:15.226Z,103064.75
2023-03-01T01:00:20.640Z,103068.28
2023-03-01T01:05:26.755Z,103056.31
2023-03-01T01:10:30.977Z,103047.84
2023-03-01T01:15:36.762Z,103044.53
2023-03-01T01:20:42.175Z,103037.00
2023-03-01T01:25:46.199Z,103033.59
2023-03-01T01:30:50.172Z,103031.03
2023-03-01T01:35:55.711Z,103018.28
2023-03-01T01:40:59.796Z,103011.47
2023-03-01T01:46:07.280Z,103006.47
2023-03-01T01:51:16.443Z,102998.78
2023-03-01T01:56:22.491Z,103000.59
2023-03-01T02:01:27.322Z,102997.19
2023-03-01T02:06:37.958Z,102995.56
2023-03-01T02:11:42.510Z,102993.09
2023-03-01T02:16:46.979Z,102980.31
2023-03-01T02:22:03.118Z,102975.28
2023-03-01T02:27:08.646Z,102972.84
2023-03-01T02:32:16.453Z,102969.47
2023-03-01T02:37:25.837Z,102977.13
2023-03-01T02:42:36.222Z,102978.84
2023-03-01T02:47:41.595Z,102983.34
2023-03-01T02:52:50.193Z,102982.50
2023-03-01T02:57:54.850Z,102982.59
2023-03-01T03:03:01.434Z,102984.38
2023-03-01T03:08:06.644Z,102984.53
2023-03-01T03:13:15.903Z,102976.13
2023-03-01T03:18:22.338Z,102975.25
2023-03-01T03:23:26.772Z,102967.50
2023-03-01T03:28:31.634Z,102973.56
2023-03-01T03:33:37.177Z,102961.69
2023-03-01T03:38:41.518Z,102971.16
2023-03-01T03:43:46.063Z,102962.81
2023-03-01T03:48:51.423Z,102963.75
2023-03-01T03:53:55.580Z,102955.25
2023-03-01T03:58:59.525Z,102967.22
2023-03-01T04:04:05.292Z,102956.22
2023-03-01T04:09:09.363Z,102960.44
2023-03-01T04:14:13.445Z,102953.59
2023-03-01T04:19:18.799Z,102941.75
2023-03-01T04:24:23.949Z,102941.75
2023-03-01T04:29:28.007Z,102943.47
2023-03-01T04:34:33.442Z,102941.84
2023-03-01T04:39:46.297Z,102949.50
2023-03-01T04:44:52.407Z,102946.09
2023-03-01T04:49:57.923Z,102938.56
2023-03-01T04:55:02.121Z,102932.59
2023-03-01T05:00:21.041Z,102926.66
2023-03-01T05:05:30.781Z,102913.88
2023-03-01T05:10:37.178Z,102917.25
2023-03-01T05:15:41.579Z,102913.94
2023-03-01T05:20:47.236Z,102904.56
2023-03-01T05:25:53.407Z,102905.47
2023-03-01T05:30:58.160Z,102892.78
2023-03-01T05:36:04.047Z,102891.97
2023-03-01T05:41:16.263Z,102874.91
2023-03-01T05:46:20.297Z,102880.06
2023-03-01T05:51:25.730Z,102867.31
2023-03-01T05:56:30.478Z,102870.78
2023-03-01T06:01:35.962Z,102868.31
2023-03-01T06:06:41.354Z,102875.97
2023-03-01T06:11:45.533Z,102875.94
2023-03-01T06:16:49.866Z,102877.63
2023-03-01T06:21:55.552Z,102880.19
2023-03-01T06:26:59.562Z,102876.84
2023-03-01T06:32:04.441Z,102873.47
2023-03-01T06:37:10.492Z,102871.72
2023-03-01T06:42:15.692Z,102877.69
2023-03-01T06:47:21.327Z,102897.31
2023-03-01T06:52:27.000Z,102890.50
2023-03-01T06:57:31.242Z,102904.13
2023-03-01T07:02:35.340Z,102899.00
2023-03-01T07:07:40.786Z,102905.81
2023-03-01T07:12:44.758Z,102885.34
2023-03-01T07:17:51.008Z,102877.59
2023-03-01T07:22:59.406Z,102875.81
2023-03-01T07:28:03.474Z,102879.16
2023-03-01T07:33:08.838Z,102884.25
2023-03-01T07:38:14.162Z,102895.22
2023-03-01T07:43:18.206Z,102887.41
2023-03-01T07:48:22.252Z,102896.69
2023-03-01T07:53:27.679Z,102891.47
2023-03-01T07:58:31.893Z,102904.16
2023-03-01T08:03:39.861Z,102891.22
2023-03-01T08:08:45.830Z,102900.47
2023-03-01T08:13:51.713Z,102893.44
2023-03-01T08:19:01.615Z,102890.00
2023-03-01T08:24:11.160Z,102881.16
2023-03-01T08:29:16.365Z,102883.47
2023-03-01T08:34:21.335Z,102882.47
2023-03-01T08:39:26.731Z,102880.44
2023-03-01T08:44:30.780Z,102870.81
2023-03-01T08:49:35.088Z,102878.22
2023-03-01T08:54:40.686Z,102859.81
2023-03-01T08:59:44.800Z,102828.50
2023-03-01T09:04:48.851Z,102799.78
2023-03-01T09:09:55.038Z,102778.41
2023-03-01T09:14:59.123Z,102752.16
2023-03-01T09:20:04.042Z,102739.72
2023-03-01T09:25:10.801Z,102718.75
2023-03-01T09:30:16.503Z,102712.34
2023-03-01T09:35:20.989Z,102694.53
2023-03-01T09:40:30.634Z,102691.06
2023-03-01T09:45:40.480Z,102688.81
2023-03-01T09:50:47.691Z,102675.03
2023-03-01T09:56:00.587Z,102670.91
2023-03-01T10:01:18.776Z,102655.38
2023-03-01T10:06:34.430Z,102647.78
2023-03-01T10:11:45.970Z,102642.00
2023-03-01T10:16:55.539Z,102639.22
2023-03-01T10:22:05.968Z,102628.41
2023-03-01T10:27:20.388Z,102628.41
2023-03-01T10:32:25.381Z,102622.19
2023-03-01T10:37:30.588Z,102613.50
2023-03-01T10:42:40.943Z,102598.19
2023-03-01T10:47:45.108Z,102594.56
2023-03-01T10:53:01.785Z,102589.25
2023-03-01T10:58:20.868Z,102583.78
2023-03-01T11:03:27.280Z,102572.66
2023-03-01T11:08:46.124Z,102583.16
2023-03-01T11:14:01.177Z,102569.03
2023-03-01T11:19:22.553Z,102583.72
2023-03-01T11:24:36.966Z,102585.59
2023-03-01T11:29:49.221Z,102557.19
2023-03-01T11:35:01.588Z,102567.56
2023-03-01T11:40:15.677Z,102560.72
2023-03-01T11:45:25.704Z,102549.06
2023-03-01T11:50:38.478Z,102561.78
2023-03-01T11:55:59.687Z,102550.56
2023-03-01T12:01:28.766Z,102543.94
2023-03-01T12:07:01.858Z,102538.34
2023-03-01T12:12:31.958Z,102528.06
2023-03-01T12:18:00.679Z,102518.16
2023-03-01T12:23:50.487Z,102503.78
2023-03-01T12:29:24.981Z,102510.84
2023-03-01T12:35:07.821Z,102501.31
2023-03-01T12:40:53.825Z,102500.63
2023-03-01T12:46:16.566Z,102500.00
2023-03-01T12:51:26.165Z,102481.94
2023-03-01T12:56:34.069Z,102483.22
2023-03-01T13:01:49.202Z,102456.88
2023-03-01T13:07:10.429Z,102461.94
2023-03-01T13:12:48.361Z,102446.53
2023-03-01T13:17:54.542Z,102445.63
2023-03-01T13:23:11.753Z,102441.09
2023-03-01T13:28:52.353Z,102452.13
2023-03-01T13:33:57.087Z,102440.03
2023-03-01T13:39:04.802Z,102445.00
2023-03-01T13:44:15.582Z,102427.56
2023-03-01T13:49:24.152Z,102428.66
2023-03-01T13:54:36.955Z,102429.50
2023-03-01T13:59:49.907Z,102422.94
2023-03-01T14:05:01.215Z,102416.16
2023-03-01T14:10:08.768Z,102426.19
2023-03-01T14:15:21.449Z,102417.31
2023-03-01T14:20:29.952Z,102419.34
2023-03-01T14:25:38.221Z,102420.03
2023-03-01T14:30:46.988Z,102405.00
2023-03-01T14:36:03.231Z,102395.91
2023-03-01T14:41:12.782Z,102392.66
2023-03-01T14:46:23.012Z,102379.03
2023-03-01T14:51:27.161Z,102374.97
2023-03-01T14:56:46.924Z,102380.38
2023-03-01T15:01:52.334Z,102381.06
2023-03-01T15:07:05.960Z,102377.75
2023-03-01T15:12:41.335Z,102384.66
2023-03-01T15:17:46.531Z,102358.69
2023-03-01T15:22:51.015Z,102362.13
2023-03-01T15:27:59.118Z,102360.41
2023-03-01T15:33:37.968Z,102370.09
2023-03-01T15:38:56.096Z,102372.06
2023-03-01T15:44:03.262Z,102370.53
2023-03-01T15:49:27.950Z,102374.88
2023-03-01T15:54:33.066Z,102365.69
2023-03-01T15:59:38.647Z,102360.97
2023-03-01T16:04:47.197Z,102347.91
2023-03-01T16:09:51.876Z,102341.59
2023-03-01T16:14:59.168Z,102348.41
2023-03-01T16:20:06.561Z,102348.88
2023-03-01T16:25:11.538Z,102344.22
2023-03-01T16:30:20.033Z,102364.38
2023-03-01T16:35:24.465Z,102354.81
2023-03-01T16:40:30.828Z,102359.81
2023-03-01T16:45:45.888Z,102352.75
2023-03-01T16:50:59.847Z,102337.91
2023-03-01T16:56:06.053Z,102339.72
2023-03-01T17:01:16.767Z,102346.66
2023-03-01T17:06:25.752Z,102352.16
2023-03-01T17:11:30.592Z,102340.06
2023-03-01T17:16:37.135Z,102348.19
2023-03-01T17:21:41.557Z,102351.59
2023-03-01T17:26:45.803Z,102356.50
2023-03-01T17:31:51.370Z,102352.66
2023-03-01T17:36:55.456Z,102357.28
2023-03-01T17:42:10.033Z,102359.66
2023-03-01T17:47:15.518Z,102375.56
2023-03-01T17:52:23.817Z,102376.47
2023-03-01T17:57:27.997Z,102393.38
2023-03-01T18:02:33.844Z,102389.88
2023-03-01T18:07:39.361Z,102397.88
2023-03-01T18:12:43.494Z,102404.25
2023-03-01T18:17:48.814Z,102398.06
2023-03-01T18:22:53.583Z,102393.78
2023-03-01T18:27:57.806Z,102399.38
2023-03-01T18:33:03.303Z,102395.50
2023-03-01T18:38:07.390Z,102384.66
2023-03-01T18:43:11.573Z,102387.00
2023-03-01T18:48:17.375Z,102389.72
2023-03-01T18:53:21.417Z,102380.09
2023-03-01T18:58:25.405Z,102395.75
2023-03-01T19:03:30.930Z,102394.22
2023-03-01T19:08:35.146Z,102394.66
2023-03-01T19:13:41.486Z,102396.75
2023-03-01T19:18:51.456Z,102393.28
2023-03-01T19:23:56.490Z,102391.06
2023-03-01T19:29:01.065Z,102395.91
2023-03-01T19:34:11.471Z,102409.63
2023-03-01T19:39:16.256Z,102403.44
2023-03-01T19:44:24.799Z,102399.44
2023-03-01T19:49:33.122Z,102400.75
2023-03-01T19:55:09.089Z,102405.25
2023-03-01T20:00:21.286Z,102403.94
2023-03-01T20:05:35.290Z,102397.13
2023-03-01T20:10:39.731Z,102408.25
2023-03-01T20:15:45.244Z,102396.53
2023-03-01T20:21:25.030Z,102401.91
2023-03-01T20:27:09.317Z,102399.53
2023-03-01T20:32:20.646Z,102395.59
2023-03-01T20:37:44.828Z,102408.63
2023-03-01T20:42:49.277Z,102402.66
2023-03-01T20:48:35.688Z,102395.81
2023-03-01T20:54:11.067Z,102388.56
2023-03-01T20:59:28.146Z,102391.66
2023-03-01T21:04:32.309Z,102394.28
2023-03-01T21:09:38.073Z,102390.38
2023-03-01T21:14:44.766Z,102383.59
2023-03-01T21:19:49.818Z,102381.22
2023-03-01T21:24:55.197Z,102385.69
2023-03-01T21:29:59.356Z,102384.94
2023-03-01T21:35:03.426Z,102392.72
2023-03-01T21:40:11.524Z,102388.03
2023-03-01T21:45:15.794Z,102391.56
2023-03-01T21:50:20.005Z,102384.97
2023-03-01T21:55:25.483Z,102392.19
2023-03-01T22:00:29.527Z,102395.03
2023-03-01T22:05:33.610Z,102390.09
2023-03-01T22:10:43.562Z,102387.75
2023-03-01T22:15:48.352Z,102397.81
2023-03-01T22:20:54.616Z,102407.53
2023-03-01T22:26:00.453Z,102408.88
2023-03-01T22:31:05.872Z,102399.47
2023-03-01T22:36:10.265Z,102391.94
2023-03-01T22:41:16.434Z,102391.25
2023-03-01T22:46:21.398Z,102403.84
2023-03-01T22:51:28.378Z,102409.41
2023-03-01T22:56:37.705Z,102402.88
2023-03-01T23:01:47.563Z,102410.66
2023-03-01T23:06:54.154Z,102399.44
2023-03-01T23:12:01.962Z,102397.16
2023-03-01T23:17:08.039Z,102391.47
2023-03-01T23:22:12.447Z,102406.97
2023-03-01T23:27:18.097Z,102409.81
2023-03-01T23:32:22.225Z,102392.75
2023-03-01T23:37:31.473Z,102390.47
2023-03-01T23:42:37.051Z,102389.72
2023-03-01T23:47:43.763Z,102384.63
2023-03-01T23:52:47.814Z,102391.72
2023-03-01T23:57:53.462Z,102392.81
